Time;durP1;ratioP1;P1;durP2;ratioP2;P2;SDS_P1;SDS_P2;PMS_P1;PMS_P2;Temp;Humidity;BMP_temperature;BMP_pressure;BME280_temperature;BME280_humidity;BME280_pressure;Samples;Min_cycle;Max_cycle;Signal;HPM_P1;HPM_P2
2021/09/30 00:00:12;;;;;;;0.47;0.40;;;;;;;-142.37;100.00;59669.53;4879974;29;20504;-76
2021/09/30 00:02:56;;;;;;;0.60;0.43;;;;;;;-142.37;100.00;59669.53;4864448;29;20040;-74
2021/09/30 00:05:23;;;;;;;0.25;0.20;;;;;;;-142.37;100.00;59669.53;4879997;29;20469;-72
2021/09/30 00:07:51;;;;;;;0.40;0.40;;;;;;;-142.37;100.00;59669.53;4881937;29;20037;-75
2021/09/30 00:10:58;;;;;;;1.13;0.40;;;;;;;-142.37;100.00;59669.53;4879761;29;20033;-75
2021/09/30 00:16:25;;;;;;;0.50;0.50;;;;;;;-142.37;100.00;59669.53;4879162;29;20029;-72
2021/09/30 00:46:04;;;;;;;1.20;0.40;;;;;;;-142.37;100.00;59669.53;4842392;29;20036;-74
2021/09/30 00:51:47;;;;;;;0.40;0.20;;;;;;;-142.37;100.00;59669.53;4842054;29;20482;-74
2021/09/30 00:54:35;;;;;;;0.43;0.20;;;;;;;-142.37;100.00;59669.53;4788582;30;20507;-73
2021/09/30 01:30:37;;;;;;;0.90;0.40;;;;;;;-142.37;100.00;59669.53;4787152;29;20054;-73
2021/09/30 01:52:45;;;;;;;0.70;0.20;;;;;;;-142.37;100.00;59669.53;4897819;29;20104;-76
2021/09/30 01:58:51;;;;;;;0.75;0.10;;;;;;;-142.37;100.00;59669.53;4897193;29;20072;-72
2021/09/30 02:19:20;;;;;;;0.45;0.10;;;;;;;-142.37;100.00;59669.53;5014019;28;20034;-73
2021/09/30 02:22:39;;;;;;;0.45;0.20;;;;;;;-142.37;100.00;59669.53;5014188;28;20079;-75
2021/09/30 02:59:20;;;;;;;0.20;0.20;;;;;;;-142.37;100.00;59669.53;4937536;29;20050;-71
2021/09/30 03:01:56;;;;;;;0.30;0.15;;;;;;;-142.37;100.00;59669.53;4937723;29;20031;-73
2021/09/30 03:04:59;;;;;;;0.20;0.00;;;;;;;-142.37;100.00;59669.53;4937710;29;20083;-76
2021/09/30 03:07:28;;;;;;;0.63;0.20;;;;;;;-142.37;100.00;59669.53;4937625;29;20483;-76
2021/09/30 03:10:05;;;;;;;0.43;0.28;;;;;;;-142.37;100.00;59669.53;4937464;29;20027;-71
2021/09/30 03:12:59;;;;;;;0.10;0.10;;;;;;;-142.37;100.00;59669.53;5036602;28;20021;-74
2021/09/30 03:23:30;;;;;;;0.32;0.13;;;;;;;-142.37;100.00;59669.53;5036854;28;20033;-73
2021/09/30 03:25:56;;;;;;;0.55;0.20;;;;;;;-142.37;100.00;59669.53;5036468;28;20036;-72
2021/09/30 03:28:39;;;;;;;0.38;0.15;;;;;;;-142.37;100.00;59669.53;5041896;28;20061;-73
2021/09/30 03:31:06;;;;;;;0.85;0.20;;;;;;;-142.37;100.00;59669.53;5018711;28;20124;-72
2021/09/30 03:33:31;;;;;;;0.15;0.15;;;;;;;-142.37;100.00;59669.53;5018610;28;20021;-73
2021/09/30 03:35:58;;;;;;;0.35;0.20;;;;;;;-142.37;100.00;59669.53;5036522;28;20021;-75
2021/09/30 03:38:32;;;;;;;0.30;0.30;;;;;;;-142.37;100.00;59669.53;5036261;28;20499;-72
2021/09/30 03:41:07;;;;;;;0.73;0.10;;;;;;;-142.37;100.00;59669.53;5036594;28;20472;-74
2021/09/30 03:44:03;;;;;;;1.55;0.20;;;;;;;-142.37;100.00;59669.53;5018450;28;20084;-72
2021/09/30 03:46:40;;;;;;;0.30;0.10;;;;;;;-142.37;100.00;59669.53;5036067;28;20026;-74
2021/09/30 03:49:11;;;;;;;0.20;0.20;;;;;;;-142.37;100.00;59669.53;5036023;28;20456;-74
2021/09/30 03:54:30;;;;;;;0.25;0.08;;;;;;;-142.37;100.00;59669.53;5036386;28;20029;-72
2021/09/30 03:57:25;;;;;;;0.13;0.13;;;;;;;-142.37;100.00;59669.53;5037209;28;20037;-74
2021/09/30 03:59:53;;;;;;;0.25;0.10;;;;;;;-142.37;100.00;59669.53;5035778;28;20032;-75
2021/09/30 04:02:19;;;;;;;0.20;0.05;;;;;;;-142.37;100.00;59669.53;5035867;28;20071;-72
2021/09/30 04:04:50;;;;;;;0.20;0.10;;;;;;;-142.37;100.00;59669.53;5035873;28;20411;-73
2021/09/30 04:07:18;;;;;;;0.45;0.20;;;;;;;-142.37;100.00;59669.53;5035802;28;20404;-74
2021/09/30 04:09:45;;;;;;;0.20;0.15;;;;;;;-142.37;100.00;59669.53;5035735;28;20021;-72
2021/09/30 04:12:39;;;;;;;0.38;0.15;;;;;;;-142.37;100.00;59669.53;5035698;28;20057;-75
2021/09/30 04:15:05;;;;;;;0.68;0.17;;;;;;;-142.37;100.00;59669.53;4974483;28;20062;-73
2021/09/30 04:17:43;;;;;;;0.28;0.10;;;;;;;-142.37;100.00;59669.53;4974665;28;20039;-75
2021/09/30 04:20:29;;;;;;;0.17;0.03;;;;;;;-142.37;100.00;59669.53;4974635;28;20039;-75
2021/09/30 04:22:55;;;;;;;0.10;0.10;;;;;;;-142.37;100.00;59669.53;4974688;28;20122;-72
2021/09/30 04:25:36;;;;;;;0.60;0.35;;;;;;;-142.37;100.00;59669.53;4962520;28;20363;-75
2021/09/30 04:28:47;;;;;;;0.25;0.10;;;;;;;-142.37;100.00;59669.53;4974607;28;20031;-71
2021/09/30 04:31:14;;;;;;;0.35;0.10;;;;;;;-142.37;100.00;59669.53;4955233;29;20072;-72
2021/09/30 04:33:41;;;;;;;0.17;0.00;;;;;;;-142.37;100.00;59669.53;4955094;29;20039;-74
2021/09/30 04:36:07;;;;;;;0.20;0.10;;;;;;;-142.37;100.00;59669.53;4955478;29;20410;-75
2021/09/30 04:38:35;;;;;;;0.63;0.20;;;;;;;-142.37;100.00;59669.53;4954769;29;20144;-72
2021/09/30 04:41:02;;;;;;;0.20;0.20;;;;;;;-142.37;100.00;59669.53;4938865;29;20027;-75
2021/09/30 04:43:37;;;;;;;0.13;0.10;;;;;;;-142.37;100.00;59669.53;4954889;29;20030;-73
2021/09/30 04:46:05;;;;;;;0.10;0.08;;;;;;;-142.37;100.00;59669.53;4954919;29;20039;-73
2021/09/30 04:48:39;;;;;;;0.20;0.10;;;;;;;-142.37;100.00;59669.53;4954922;29;20035;-73
2021/09/30 04:51:07;;;;;;;0.20;0.10;;;;;;;-142.37;100.00;59669.53;4961693;28;20034;-74
2021/09/30 04:53:33;;;;;;;0.30;0.10;;;;;;;-142.37;100.00;59669.53;4994261;28;20038;-75
2021/09/30 04:56:13;;;;;;;0.10;0.10;;;;;;;-142.37;100.00;59669.53;4994996;28;20126;-73
2021/09/30 04:58:50;;;;;;;1.23;0.20;;;;;;;-142.37;100.00;59669.53;4993418;28;20068;-75
2021/09/30 05:01:17;;;;;;;0.70;0.20;;;;;;;-142.37;100.00;59669.53;4992969;28;20034;-72
2021/09/30 05:03:52;;;;;;;0.82;0.20;;;;;;;-142.37;100.00;59669.53;4993238;28;20398;-75
2021/09/30 05:06:19;;;;;;;0.52;0.20;;;;;;;-142.37;100.00;59669.53;4993176;28;20100;-72
2021/09/30 05:09:02;;;;;;;1.10;0.20;;;;;;;-142.37;100.00;59669.53;4994875;28;20045;-76
2021/09/30 05:11:58;;;;;;;0.63;0.15;;;;;;;-142.37;100.00;59669.53;4995154;28;20022;-73
2021/09/30 05:14:23;;;;;;;0.20;0.10;;;;;;;-142.37;100.00;59669.53;4993280;28;20437;-72
2021/09/30 05:16:58;;;;;;;0.47;0.10;;;;;;;-142.37;100.00;59669.53;4993169;28;20023;-73
2021/09/30 05:19:23;;;;;;;0.55;0.10;;;;;;;-142.37;100.00;59669.53;4994528;28;20026;-75
2021/09/30 05:21:49;;;;;;;1.17;0.20;;;;;;;-142.37;100.00;59669.53;4994466;28;20026;-72
2021/09/30 05:24:45;;;;;;;0.60;0.22;;;;;;;-142.37;100.00;59669.53;4999126;28;20023;-76
2021/09/30 05:27:24;;;;;;;0.10;0.10;;;;;;;-142.37;100.00;59669.53;4994377;28;20437;-74
2021/09/30 05:29:58;;;;;;;0.08;0.03;;;;;;;-142.37;100.00;59669.53;4994482;28;20030;-76
2021/09/30 05:32:55;;;;;;;0.00;0.00;;;;;;;-142.37;100.00;59669.53;4994339;28;20069;-75
2021/09/30 05:35:55;;;;;;;0.85;0.20;;;;;;;-142.37;100.00;59669.53;4992990;28;20382;-74
2021/09/30 05:38:21;;;;;;;0.40;0.20;;;;;;;-142.37;100.00;59669.53;4934313;29;20032;-77
2021/09/30 05:41:04;;;;;;;0.10;0.10;;;;;;;-142.37;100.00;59669.53;4934346;29;20539;-74
2021/09/30 05:43:35;;;;;;;0.22;0.10;;;;;;;-142.37;100.00;59669.53;4934267;29;20032;-76
2021/09/30 05:46:01;;;;;;;0.13;0.10;;;;;;;-142.37;100.00;59669.53;4934248;29;20168;-73
2021/09/30 05:48:37;;;;;;;0.45;0.22;;;;;;;-142.37;100.00;59669.53;4934114;29;20717;-76
2021/09/30 05:51:11;;;;;;;0.25;0.15;;;;;;;-142.37;100.00;59669.53;4928202;29;20134;-72
2021/09/30 05:54:01;;;;;;;0.47;0.00;;;;;;;-142.37;100.00;59669.53;4934198;29;20072;-76
2021/09/30 05:56:38;;;;;;;0.40;0.10;;;;;;;-142.37;100.00;59669.53;4934109;29;20031;-72
2021/09/30 05:59:16;;;;;;;0.52;0.10;;;;;;;-142.37;100.00;59669.53;4934000;29;20032;-78
2021/09/30 06:10:25;;;;;;;0.20;0.08;;;;;;;-142.37;100.00;59669.53;4934319;29;20034;-73
2021/09/30 06:13:07;;;;;;;0.73;0.10;;;;;;;-142.37;100.00;59669.53;4936780;28;20031;-76
2021/09/30 06:15:35;;;;;;;0.75;0.10;;;;;;;-142.37;100.00;59669.53;4991784;28;1028833;-73
2021/09/30 06:18:01;;;;;;;0.35;0.10;;;;;;;-142.37;100.00;59669.53;5020068;28;20029;-75
2021/09/30 06:20:39;;;;;;;0.40;0.17;;;;;;;-142.37;100.00;59669.53;5040685;28;20036;-75
2021/09/30 06:23:26;;;;;;;0.35;0.10;;;;;;;-142.37;100.00;59669.53;5000330;28;20022;-76
2021/09/30 06:26:12;;;;;;;0.50;0.22;;;;;;;-142.37;100.00;59669.53;5029504;28;20491;-72
2021/09/30 06:28:43;;;;;;;0.10;0.10;;;;;;;-142.37;100.00;59669.53;5009740;28;20040;-76
2021/09/30 06:31:25;;;;;;;0.20;0.10;;;;;;;-142.37;100.00;59669.53;5019675;28;20060;-74
2021/09/30 06:33:53;;;;;;;0.73;0.20;;;;;;;-142.37;100.00;59669.53;5037610;28;20017;-76
2021/09/30 06:36:38;;;;;;;0.73;0.20;;;;;;;-142.37;100.00;59669.53;5019460;28;20052;-76
2021/09/30 06:39:13;;;;;;;0.10;0.10;;;;;;;-142.37;100.00;59669.53;5037467;28;20439;-73
2021/09/30 06:42:09;;;;;;;0.13;0.10;;;;;;;-142.37;100.00;59669.53;5030788;28;20095;-76
2021/09/30 06:45:04;;;;;;;0.88;0.25;;;;;;;-142.37;100.00;59669.53;5037264;28;20488;-75
2021/09/30 06:47:36;;;;;;;0.15;0.00;;;;;;;-142.37;100.00;59669.53;5037419;28;20471;-71
2021/09/30 06:50:04;;;;;;;0.45;0.10;;;;;;;-142.37;100.00;59669.53;5039050;28;20029;-73
2021/09/30 06:52:30;;;;;;;0.17;0.03;;;;;;;-142.37;100.00;59669.53;5030560;28;20033;-74
2021/09/30 06:54:55;;;;;;;0.25;0.10;;;;;;;-142.37;100.00;59669.53;5036837;28;20116;-72
2021/09/30 06:57:39;;;;;;;0.20;0.15;;;;;;;-142.37;100.00;59669.53;5019295;28;20041;-75
2021/09/30 07:00:14;;;;;;;1.15;0.10;;;;;;;-142.37;100.00;59669.53;5036794;28;20030;-71
2021/09/30 07:02:40;;;;;;;;;;;;;;;-142.37;100.00;59669.53;5037071;28;20025;-75
2021/09/30 07:05:12;;;;;;;0.30;0.10;;;;;;;-142.37;100.00;59669.53;5036755;28;19924;-72
2021/09/30 07:07:40;;;;;;;0.38;0.10;;;;;;;-142.37;100.00;59669.53;5036722;28;20029;-74
2021/09/30 07:10:09;;;;;;;0.20;0.00;;;;;;;-142.37;100.00;59669.53;5036562;28;20104;-72
2021/09/30 07:12:51;;;;;;;0.10;0.10;;;;;;;-142.37;100.00;59669.53;5036561;28;20025;-72
2021/09/30 07:15:17;;;;;;;0.50;0.20;;;;;;;-142.37;100.00;59669.53;5036278;28;20500;-71
2021/09/30 07:17:42;;;;;;;0.20;0.20;;;;;;;-142.37;100.00;59669.53;5036298;28;20107;-72
2021/09/30 07:20:19;;;;;;;0.03;0.03;;;;;;;-142.37;100.00;59669.53;5036363;28;20035;-72
2021/09/30 07:22:46;;;;;;;0.30;0.20;;;;;;;-142.37;100.00;59669.53;5036240;28;20056;-74
2021/09/30 07:25:13;;;;;;;1.23;0.47;;;;;;;-142.37;100.00;59669.53;5020948;28;20353;-73
2021/09/30 07:27:44;;;;;;;0.10;0.10;;;;;;;-142.37;100.00;59669.53;5037704;28;20385;-74
2021/09/30 07:30:11;;;;;;;0.20;0.08;;;;;;;-142.37;100.00;59669.53;5035160;28;20108;-71
2021/09/30 07:32:43;;;;;;;0.38;0.22;;;;;;;-142.37;100.00;59669.53;5018277;28;20357;-74
2021/09/30 07:35:11;;;;;;;0.45;0.10;;;;;;;-142.37;100.00;59669.53;5016533;28;20492;-74
2021/09/30 07:37:45;;;;;;;0.40;0.10;;;;;;;-142.37;100.00;59669.53;5017183;28;20045;-74
2021/09/30 07:40:14;;;;;;;0.20;0.10;;;;;;;-142.37;100.00;59669.53;4998710;28;20018;-73
2021/09/30 07:42:42;;;;;;;0.60;0.17;;;;;;;-142.37;100.00;59669.53;4998857;28;20087;-73
2021/09/30 07:45:08;;;;;;;0.05;0.00;;;;;;;-142.37;100.00;59669.53;5016367;28;20038;-74
2021/09/30 07:47:33;;;;;;;0.10;0.08;;;;;;;-142.37;100.00;59669.53;5016371;28;20032;-73
2021/09/30 07:50:00;;;;;;;0.10;0.08;;;;;;;-142.37;100.00;59669.53;5014943;28;20014;-74
2021/09/30 07:52:28;;;;;;;0.15;0.10;;;;;;;-142.37;100.00;59669.53;5016699;28;20018;-73
2021/09/30 07:54:53;;;;;;;0.20;0.10;;;;;;;-142.37;100.00;59669.53;5025640;28;20476;-73
2021/09/30 07:57:48;;;;;;;0.25;0.20;;;;;;;-142.37;100.00;59669.53;5039809;28;20036;-74
2021/09/30 08:00:15;;;;;;;0.45;0.15;;;;;;;-142.37;100.00;59669.53;4975002;28;20390;-75
2021/09/30 08:02:41;;;;;;;0.22;0.10;;;;;;;-142.37;100.00;59669.53;4974988;28;20023;-75
2021/09/30 08:05:54;;;;;;;0.28;0.00;;;;;;;-142.37;100.00;59669.53;4974898;28;20078;-72
2021/09/30 08:08:20;;;;;;;0.63;0.10;;;;;;;-142.37;100.00;59669.53;4955162;29;20043;-71
2021/09/30 08:10:47;;;;;;;0.20;0.10;;;;;;;-142.37;100.00;59669.53;4954935;28;20035;-73
2021/09/30 08:13:23;;;;;;;1.45;0.17;;;;;;;-142.37;100.00;59669.53;4936319;29;20039;-75
2021/09/30 08:15:48;;;;;;;0.10;0.10;;;;;;;-142.37;100.00;59669.53;4936690;29;20078;-73
2021/09/30 08:18:27;;;;;;;0.10;0.10;;;;;;;-142.37;100.00;59669.53;4955261;28;20491;-75
2021/09/30 08:21:01;;;;;;;0.10;0.10;;;;;;;-142.37;100.00;59669.53;4955374;29;20106;-72
2021/09/30 08:23:28;;;;;;;0.32;0.10;;;;;;;-142.37;100.00;59669.53;4971230;28;20067;-75
2021/09/30 08:26:23;;;;;;;0.10;0.10;;;;;;;-142.37;100.00;59669.53;4949623;29;20422;-73
2021/09/30 08:29:21;;;;;;;;;;;;;;;-142.37;100.00;59669.53;4941876;29;20023;-75
2021/09/30 08:31:47;;;;;;;0.13;0.13;;;;;;;-142.37;100.00;59669.53;4935962;29;19910;-73
2021/09/30 08:34:13;;;;;;;0.52;0.30;;;;;;;-142.37;100.00;59669.53;4920147;29;20066;-72
2021/09/30 08:36:38;;;;;;;0.63;0.20;;;;;;;-142.37;100.00;59669.53;4925859;29;20047;-74
2021/09/30 08:39:14;;;;;;;0.10;0.03;;;;;;;-142.37;100.00;59669.53;4931634;29;20042;-74
2021/09/30 08:41:48;;;;;;;0.52;0.10;;;;;;;-142.37;100.00;59669.53;4938549;29;20039;-69
2021/09/30 08:44:13;;;;;;;0.00;0.00;;;;;;;-142.37;100.00;59669.53;4966091;28;20589;-69
2021/09/30 08:46:40;;;;;;;0.55;0.10;;;;;;;-142.37;100.00;59669.53;4993257;28;20066;-70
2021/09/30 08:49:05;;;;;;;0.88;0.30;;;;;;;-142.37;100.00;59669.53;4993360;28;20038;-71
2021/09/30 08:51:35;;;;;;;1.00;0.20;;;;;;;-142.37;100.00;59669.53;4993160;28;20095;-69
2021/09/30 08:54:03;;;;;;;0.28;0.10;;;;;;;-142.37;100.00;59669.53;4993207;28;20552;-70
2021/09/30 08:56:33;;;;;;;0.93;0.30;;;;;;;-142.37;100.00;59669.53;4979912;28;20031;-69
2021/09/30 08:59:15;;;;;;;0.90;0.52;;;;;;;-142.37;100.00;59669.53;4973505;28;20063;-73
2021/09/30 09:02:01;;;;;;;0.20;0.10;;;;;;;-142.37;100.00;59669.53;4973434;28;20034;-70
2021/09/30 09:04:27;;;;;;;0.40;0.15;;;;;;;-142.37;100.00;59669.53;4980334;28;20497;-69
2021/09/30 09:06:52;;;;;;;0.35;0.20;;;;;;;-142.37;100.00;59669.53;5005282;28;20045;-69
2021/09/30 09:09:27;;;;;;;0.32;0.17;;;;;;;-142.37;100.00;59669.53;5034230;28;20021;-71
2021/09/30 09:12:01;;;;;;;0.65;0.20;;;;;;;-142.37;100.00;59669.53;5033601;28;20022;-69
2021/09/30 09:14:30;;;;;;;0.68;0.25;;;;;;;-142.37;100.00;59669.53;5034034;28;20048;-71
2021/09/30 09:17:01;;;;;;;0.10;0.10;;;;;;;-142.37;100.00;59669.53;5033961;28;20061;-69
2021/09/30 09:19:34;;;;;;;0.15;0.08;;;;;;;-142.37;100.00;59669.53;5033850;28;20025;-69
2021/09/30 09:22:36;;;;;;;0.20;0.10;;;;;;;-142.37;100.00;59669.53;5034140;28;20075;-70
2021/09/30 09:25:16;;;;;;;0.30;0.20;;;;;;;-142.37;100.00;59669.53;5033843;28;20029;-71
2021/09/30 09:27:44;;;;;;;0.10;0.10;;;;;;;-142.37;100.00;59669.53;5033961;28;20056;-69
2021/09/30 09:30:43;;;;;;;0.20;0.20;;;;;;;-142.37;100.00;59669.53;5033916;28;20453;-70
2021/09/30 09:33:19;;;;;;;0.30;0.10;;;;;;;-142.37;100.00;59669.53;5033990;28;20522;-70
2021/09/30 09:36:01;;;;;;;0.20;0.10;;;;;;;-142.37;100.00;59669.53;5034055;28;20100;-71
2021/09/30 09:38:55;;;;;;;0.40;0.10;;;;;;;-142.37;100.00;59669.53;5027107;28;20021;-70
2021/09/30 09:41:29;;;;;;;0.30;0.10;;;;;;;-142.37;100.00;59669.53;5032964;28;20044;-70
2021/09/30 09:44:00;;;;;;;0.32;0.10;;;;;;;-142.37;100.00;59669.53;5033804;28;20136;-70
2021/09/30 09:46:38;;;;;;;0.75;0.20;;;;;;;-142.37;100.00;59669.53;5033764;28;20029;-70
2021/09/30 09:49:12;;;;;;;0.43;0.20;;;;;;;-142.37;100.00;59669.53;5032848;28;20017;-70
2021/09/30 09:51:45;;;;;;;1.40;0.20;;;;;;;-142.37;100.00;59669.53;5033802;28;20032;-71
2021/09/30 09:54:19;;;;;;;0.07;0.03;;;;;;;-142.37;100.00;59669.53;5033722;28;20029;-69
2021/09/30 09:56:52;;;;;;;0.85;0.05;;;;;;;-142.37;100.00;59669.53;5032810;28;20022;-70
2021/09/30 09:59:30;;;;;;;0.10;0.10;;;;;;;-142.37;100.00;59669.53;5033808;28;20022;-69
2021/09/30 10:01:58;;;;;;;0.22;0.17;;;;;;;-142.37;100.00;59669.53;5032612;28;20026;-71
2021/09/30 10:04:26;;;;;;;0.17;0.00;;;;;;;-142.37;100.00;59669.53;5032778;28;20029;-70
2021/09/30 10:07:07;;;;;;;1.02;0.13;;;;;;;-142.37;100.00;59669.53;5033736;28;20025;-71
2021/09/30 10:09:41;;;;;;;0.17;0.10;;;;;;;-142.37;100.00;59669.53;5032602;28;20079;-71
2021/09/30 10:12:09;;;;;;;0.13;0.10;;;;;;;-142.37;100.00;59669.53;5033383;28;20033;-70
2021/09/30 10:14:36;;;;;;;0.20;0.10;;;;;;;-142.37;100.00;59669.53;5012651;28;20097;-71
2021/09/30 10:17:02;;;;;;;0.65;0.17;;;;;;;-142.37;100.00;59669.53;5013918;28;20101;-70
2021/09/30 10:19:34;;;;;;;0.20;0.10;;;;;;;-142.37;100.00;59669.53;5012701;28;20132;-71
2021/09/30 10:21:59;;;;;;;0.32;0.10;;;;;;;-142.37;100.00;59669.53;5014045;28;20022;-70
2021/09/30 10:24:27;;;;;;;0.22;0.20;;;;;;;-142.37;100.00;59669.53;5014011;28;20026;-71
2021/09/30 10:27:02;;;;;;;0.20;0.00;;;;;;;-142.37;100.00;59669.53;5013927;28;20105;-70
2021/09/30 10:29:44;;;;;;;0.20;0.08;;;;;;;-142.37;100.00;59669.53;5013879;28;20014;-70
2021/09/30 10:32:25;;;;;;;0.30;0.10;;;;;;;-142.37;100.00;59669.53;5013875;28;20056;-70
2021/09/30 10:34:59;;;;;;;0.60;0.00;;;;;;;-142.37;100.00;59669.53;5013826;28;20511;-71
2021/09/30 10:37:36;;;;;;;0.30;0.27;;;;;;;-142.37;100.00;59669.53;5025490;28;20025;-69
2021/09/30 10:40:31;;;;;;;0.22;0.10;;;;;;;-142.37;100.00;59669.53;5023869;28;20307;-71
2021/09/30 10:43:22;;;;;;;0.15;0.10;;;;;;;-142.37;100.00;59669.53;5013374;28;20380;-69
2021/09/30 10:45:59;;;;;;;0.35;0.20;;;;;;;-142.37;100.00;59669.53;5013947;28;20026;-71
2021/09/30 10:48:27;;;;;;;0.00;0.00;;;;;;;-142.37;100.00;59669.53;5022931;28;20373;-69
2021/09/30 10:51:30;;;;;;;1.02;0.05;;;;;;;-142.37;100.00;59669.53;5013880;28;20025;-72
2021/09/30 10:53:57;;;;;;;0.35;0.08;;;;;;;-142.37;100.00;59669.53;4991567;28;20349;-68
2021/09/30 10:56:27;;;;;;;0.00;0.00;;;;;;;-142.37;100.00;59669.53;4991725;28;20113;-71
2021/09/30 10:59:19;;;;;;;0.17;0.10;;;;;;;-142.37;100.00;59669.53;4991988;28;20042;-69
2021/09/30 11:01:57;;;;;;;0.20;0.13;;;;;;;-142.37;100.00;59669.53;4978848;28;20505;-73
2021/09/30 11:04:25;;;;;;;0.05;0.00;;;;;;;-142.37;100.00;59669.53;4995427;28;20113;-71
2021/09/30 11:07:19;;;;;;;0.25;0.10;;;;;;;-142.37;100.00;59669.53;4995396;28;20597;-73
2021/09/30 11:10:25;;;;;;;0.30;0.10;;;;;;;-142.37;100.00;59669.53;4995325;28;20038;-70
2021/09/30 11:13:18;;;;;;;0.10;0.10;;;;;;;-142.37;100.00;59669.53;4978795;28;20058;-69
2021/09/30 11:16:05;;;;;;;0.40;0.17;;;;;;;-142.37;100.00;59669.53;4995235;28;20055;-72
2021/09/30 11:18:50;;;;;;;0.10;0.10;;;;;;;-142.37;100.00;59669.53;4994997;28;20513;-70
2021/09/30 11:21:28;;;;;;;0.30;0.20;;;;;;;-142.37;100.00;59669.53;4995409;28;20030;-73
2021/09/30 11:24:24;;;;;;;0.10;0.10;;;;;;;-142.37;100.00;59669.53;4979081;28;20035;-70
2021/09/30 11:26:58;;;;;;;0.40;0.20;;;;;;;-142.37;100.00;59669.53;4921261;29;20043;-72
2021/09/30 11:29:36;;;;;;;0.10;0.10;;;;;;;-142.37;100.00;59669.53;4949045;29;20050;-71
2021/09/30 11:32:02;;;;;;;1.75;0.35;;;;;;;-142.37;100.00;59669.53;4951337;29;20118;-70
2021/09/30 11:34:32;;;;;;;2.60;0.52;;;;;;;-142.37;100.00;59669.53;4956222;29;20030;-74
2021/09/30 11:37:11;;;;;;;8.88;1.02;;;;;;;-142.37;100.00;59669.53;4953146;29;20038;-74
2021/09/30 11:39:51;;;;;;;3.13;0.40;;;;;;;-142.37;100.00;59669.53;4955802;29;20035;-75
2021/09/30 11:42:17;;;;;;;4.05;0.22;;;;;;;-142.37;100.00;59669.53;4955574;29;20035;-70
2021/09/30 11:45:00;;;;;;;4.47;0.63;;;;;;;-142.37;100.00;59669.53;4955696;29;20051;-73
2021/09/30 11:47:28;;;;;;;0.57;0.20;;;;;;;-142.37;100.00;59669.53;4924779;29;20027;-71
2021/09/30 11:49:53;;;;;;;3.45;0.50;;;;;;;-142.37;100.00;59669.53;4955258;29;20035;-71
2021/09/30 11:52:21;;;;;;;0.50;0.30;;;;;;;-142.37;100.00;59669.53;4953268;29;20030;-72
2021/09/30 11:55:16;;;;;;;1.55;0.15;;;;;;;-142.37;100.00;59669.53;4946671;29;20105;-71
2021/09/30 11:58:04;;;;;;;0.30;0.17;;;;;;;-142.37;100.00;59669.53;4955562;29;20086;-70
2021/09/30 12:00:33;;;;;;;0.47;0.15;;;;;;;-142.37;100.00;59669.53;4934698;29;20038;-74
2021/09/30 12:03:05;;;;;;;0.35;0.20;;;;;;;-142.37;100.00;59669.53;4977766;28;20036;-75
2021/09/30 12:05:34;;;;;;;0.85;0.52;;;;;;;-142.37;100.00;59669.53;5009639;28;20022;-73
2021/09/30 12:08:02;;;;;;;0.38;0.10;;;;;;;-142.37;100.00;59669.53;5002550;28;20013;-73
2021/09/30 12:10:33;;;;;;;0.75;0.30;;;;;;;-142.37;100.00;59669.53;5009697;28;20049;-67
2021/09/30 12:13:16;;;;;;;0.55;0.20;;;;;;;-142.37;100.00;59669.53;5014645;28;20025;-73
2021/09/30 12:15:42;;;;;;;0.30;0.15;;;;;;;-142.37;100.00;59669.53;5006839;28;20046;-70
2021/09/30 12:18:15;;;;;;;0.32;0.10;;;;;;;-142.37;100.00;59669.53;5015274;28;20447;-72
2021/09/30 12:20:57;;;;;;;0.40;0.17;;;;;;;-142.37;100.00;59669.53;5015413;28;20058;-74
2021/09/30 12:23:24;;;;;;;0.43;0.10;;;;;;;-142.37;100.00;59669.53;5015493;28;20488;-73
2021/09/30 12:26:09;;;;;;;0.50;0.38;;;;;;;-142.37;100.00;59669.53;5015415;28;20032;-74
2021/09/30 12:28:34;;;;;;;0.22;0.10;;;;;;;-142.37;100.00;59669.53;5015477;28;20033;-72
2021/09/30 12:31:05;;;;;;;0.45;0.28;;;;;;;-142.37;100.00;59669.53;5007892;28;20121;-73
2021/09/30 12:33:37;;;;;;;0.63;0.20;;;;;;;-142.37;100.00;59669.53;5015238;28;20380;-72
2021/09/30 12:36:05;;;;;;;0.20;0.13;;;;;;;-142.37;100.00;59669.53;5015031;28;20024;-73
2021/09/30 12:38:30;;;;;;;0.40;0.40;;;;;;;-142.37;100.00;59669.53;5030526;28;20030;-72
2021/09/30 12:41:01;;;;;;;0.25;0.10;;;;;;;-142.37;100.00;59669.53;5014859;28;20105;-72
2021/09/30 12:43:46;;;;;;;0.03;0.00;;;;;;;-142.37;100.00;59669.53;5014814;28;20022;-73
2021/09/30 12:46:13;;;;;;;0.25;0.10;;;;;;;-142.37;100.00;59669.53;5016981;28;20029;-73
2021/09/30 12:49:03;;;;;;;0.15;0.08;;;;;;;-142.37;100.00;59669.53;5014318;28;20091;-72
2021/09/30 12:51:29;;;;;;;0.20;0.15;;;;;;;-142.37;100.00;59669.53;5014140;28;20354;-72
2021/09/30 12:53:57;;;;;;;0.10;0.10;;;;;;;-142.37;100.00;59669.53;5013483;28;20408;-73
2021/09/30 12:56:33;;;;;;;1.45;0.13;;;;;;;-142.37;100.00;59669.53;5014978;28;20704;-76
2021/09/30 12:59:26;;;;;;;0.20;0.20;;;;;;;-142.37;100.00;59669.53;5013813;28;20431;-76
2021/09/30 13:02:03;;;;;;;0.10;0.10;;;;;;;-142.37;100.00;59669.53;5015448;28;20032;-76
2021/09/30 13:04:29;;;;;;;0.35;0.10;;;;;;;-142.37;100.00;59669.53;5013805;28;20029;-70
2021/09/30 13:07:00;;;;;;;0.68;0.30;;;;;;;-142.37;100.00;59669.53;5014780;28;20082;-75
2021/09/30 13:09:39;;;;;;;0.20;0.10;;;;;;;-142.37;100.00;59669.53;5014933;28;20109;-75
2021/09/30 13:12:10;;;;;;;0.75;0.10;;;;;;;-142.37;100.00;59669.53;5014905;28;20025;-74
2021/09/30 13:14:45;;;;;;;0.10;0.10;;;;;;;-142.37;100.00;59669.53;5018707;28;20136;-75
2021/09/30 13:17:20;;;;;;;;;;;;;;;-142.37;100.00;59669.53;5036131;28;20417;-75
2021/09/30 13:19:53;;;;;;;;;;;;;;;-142.37;100.00;59669.53;5035963;28;20539;-72
2021/09/30 13:22:38;;;;;;;0.30;0.10;;;;;;;-142.37;100.00;59669.53;5034125;28;19916;-74
2021/09/30 13:25:35;;;;;;;0.20;0.20;;;;;;;-142.37;100.00;59669.53;5016747;28;20079;-75
2021/09/30 13:28:10;;;;;;;0.20;0.13;;;;;;;-142.37;100.00;59669.53;5034453;28;20026;-76
2021/09/30 13:30:37;;;;;;;0.45;0.20;;;;;;;-142.37;100.00;59669.53;5034253;28;20021;-75
2021/09/30 13:33:06;;;;;;;0.10;0.10;;;;;;;-142.37;100.00;59669.53;5016862;28;20036;-76
2021/09/30 13:35:34;;;;;;;1.15;0.35;;;;;;;-142.37;100.00;59669.53;5034361;28;20493;-77
2021/09/30 13:38:00;;;;;;;0.10;0.10;;;;;;;-142.37;100.00;59669.53;5034244;28;20033;-74
2021/09/30 13:40:35;;;;;;;0.05;0.03;;;;;;;-142.37;100.00;59669.53;5016387;28;20029;-74
2021/09/30 13:43:12;;;;;;;0.10;0.10;;;;;;;-142.37;100.00;59669.53;5034390;28;20377;-74
2021/09/30 13:45:38;;;;;;;0.20;0.20;;;;;;;-142.37;100.00;59669.53;5034082;28;20056;-75
2021/09/30 13:48:09;;;;;;;0.40;0.20;;;;;;;-142.37;100.00;59669.53;5019953;28;20018;-73
2021/09/30 13:50:55;;;;;;;0.30;0.20;;;;;;;-142.37;100.00;59669.53;5016348;28;20032;-74
2021/09/30 13:53:39;;;;;;;0.40;0.10;;;;;;;-142.37;100.00;59669.53;5016286;28;20029;-76
2021/09/30 13:56:11;;;;;;;;;;;;;;;-142.37;100.00;59669.53;5016727;28;20068;-75
2021/09/30 13:59:04;;;;;;;0.35;0.20;;;;;;;-142.37;100.00;59669.53;5022487;28;20909;-71
2021/09/30 14:01:31;;;;;;;0.40;0.10;;;;;;;-142.37;100.00;59669.53;4995604;28;20073;-73
2021/09/30 14:03:57;;;;;;;1.10;0.32;;;;;;;-142.37;100.00;59669.53;5012066;28;20042;-71
2021/09/30 14:06:33;;;;;;;0.25;0.00;;;;;;;-142.37;100.00;59669.53;5012061;28;20038;-73
2021/09/30 14:08:59;;;;;;;0.32;0.30;;;;;;;-142.37;100.00;59669.53;5012153;28;20128;-72
2021/09/30 14:11:26;;;;;;;0.65;0.20;;;;;;;-142.37;100.00;59669.53;5011778;28;20030;-73
2021/09/30 14:14:16;;;;;;;0.20;0.15;;;;;;;-142.37;100.00;59669.53;5006053;28;20056;-72
2021/09/30 14:16:44;;;;;;;0.52;0.13;;;;;;;-142.37;100.00;59669.53;4988365;28;20053;-72
2021/09/30 14:19:10;;;;;;;0.10;0.10;;;;;;;-142.37;100.00;59669.53;5011830;28;20421;-73
2021/09/30 14:21:48;;;;;;;0.10;0.10;;;;;;;-142.37;100.00;59669.53;5011223;28;20472;-72
2021/09/30 14:24:16;;;;;;;0.85;0.20;;;;;;;-142.37;100.00;59669.53;5011875;28;20037;-77
2021/09/30 14:27:03;;;;;;;0.28;0.03;;;;;;;-142.37;100.00;59669.53;5012075;28;20104;-73